createdAt,value
2022-09-17T00:00:05.203Z,101508.44
2022-09-17T00:04:58.800Z,101516.25
2022-09-17T00:09:48.400Z,101504.09
2022-09-17T00:14:38.005Z,101515.38
2022-09-17T00:19:30.549Z,101522.22
2022-09-17T00:24:20.727Z,101524.00
2022-09-17T00:29:10.386Z,101525.66
2022-09-17T00:34:01.308Z,101537.75
2022-09-17T00:38:55.458Z,101516.13
2022-09-17T00:43:48.029Z,101526.56
2022-09-17T00:48:37.519Z,101525.75
2022-09-17T00:53:28.374Z,101548.97
2022-09-17T00:58:23.727Z,101544.66
2022-09-17T01:03:13.261Z,101540.28
2022-09-17T01:08:10.764Z,101528.91
2022-09-17T01:13:10.627Z,101537.47
2022-09-17T01:18:18.343Z,101542.56
2022-09-17T01:23:29.302Z,101546.00
2022-09-17T01:28:45.605Z,101540.81
2022-09-17T01:33:45.096Z,101545.94
2022-09-17T01:38:41.279Z,101525.97
2022-09-17T01:43:37.383Z,101534.72
2022-09-17T01:48:33.345Z,101532.06
2022-09-17T01:53:31.952Z,101545.84
2022-09-17T01:58:26.433Z,101544.97
2022-09-17T02:03:20.265Z,101536.28
2022-09-17T02:08:14.396Z,101542.25
2022-09-17T02:13:12.614Z,101540.50
2022-09-17T02:18:08.576Z,101550.78
2022-09-17T02:23:03.361Z,101544.56
2022-09-17T02:28:01.476Z,101541.13
2022-09-17T02:32:56.761Z,101545.44
2022-09-17T02:37:49.930Z,101561.81
2022-09-17T02:42:57.427Z,101554.91
2022-09-17T02:48:11.686Z,101552.44
2022-09-17T02:53:17.096Z,101539.56
2022-09-17T02:58:17.214Z,101548.22
2022-09-17T03:03:13.880Z,101546.47
2022-09-17T03:08:03.863Z,101556.72
2022-09-17T03:12:56.528Z,101588.63
2022-09-17T03:17:49.021Z,101555.78
2022-09-17T03:22:45.006Z,101554.13
2022-09-17T03:27:34.723Z,101561.88
2022-09-17T03:32:24.322Z,101554.06
2022-09-17T03:37:13.910Z,101537.66
2022-09-17T03:42:06.330Z,101531.56
2022-09-17T03:46:56.753Z,101534.16
2022-09-17T03:51:46.462Z,101547.88
2022-09-17T03:56:36.080Z,101551.28
2022-09-17T04:01:28.646Z,101565.06
2022-09-17T04:06:18.041Z,101565.09
2022-09-17T04:11:08.078Z,101558.25
2022-09-17T04:15:57.752Z,101548.75
2022-09-17T04:20:50.004Z,101553.94
2022-09-17T04:25:39.517Z,101561.72
2022-09-17T04:30:29.052Z,101563.38
2022-09-17T04:35:19.155Z,101564.22
2022-09-17T04:40:13.042Z,101565.06
2022-09-17T04:45:02.713Z,101565.09
2022-09-17T04:49:52.825Z,101564.28
2022-09-17T04:54:42.395Z,101567.66
2022-09-17T04:59:34.655Z,101561.53
2022-09-17T05:04:24.208Z,101577.88
2022-09-17T05:09:14.843Z,101594.19
2022-09-17T05:14:04.475Z,101603.59
2022-09-17T05:18:58.018Z,101608.94
2022-09-17T05:23:48.000Z,101592.47
2022-09-17T05:28:37.821Z,101593.44
2022-09-17T05:33:27.473Z,101604.66
2022-09-17T05:38:19.873Z,101597.75
2022-09-17T05:43:10.392Z,101576.84
2022-09-17T05:48:01.070Z,101593.34
2022-09-17T05:52:50.726Z,101599.50
2022-09-17T05:57:44.174Z,101597.00
2022-09-17T06:02:36.274Z,101598.00
2022-09-17T06:07:26.636Z,101604.06
2022-09-17T06:12:16.991Z,101612.78
2022-09-17T06:17:09.599Z,101615.38
2022-09-17T06:22:00.499Z,101621.41
2022-09-17T06:26:53.938Z,101628.38
2022-09-17T06:31:45.139Z,101661.25
2022-09-17T06:36:37.854Z,101673.44
2022-09-17T06:41:27.708Z,101652.72
2022-09-17T06:46:23.390Z,101644.00
2022-09-17T06:51:15.908Z,101664.72
2022-09-17T06:56:10.238Z,101618.16
2022-09-17T07:01:03.401Z,101640.66
2022-09-17T07:06:03.452Z,101670.84
2022-09-17T07:10:53.169Z,101668.13
2022-09-17T07:15:50.921Z,101659.41
2022-09-17T07:20:41.471Z,101645.59
2022-09-17T07:25:33.491Z,101640.47
2022-09-17T07:30:26.682Z,101639.72
2022-09-17T07:35:20.848Z,101646.88
2022-09-17T07:40:11.803Z,101656.63
2022-09-17T07:45:02.382Z,101645.47
2022-09-17T07:49:52.333Z,101639.38
2022-09-17T07:54:44.599Z,101635.06
2022-09-17T07:59:34.297Z,101637.63
2022-09-17T08:04:24.755Z,101635.91
2022-09-17T08:09:15.730Z,101637.78
2022-09-17T08:14:08.316Z,101635.22
2022-09-17T08:19:00.918Z,101649.28
2022-09-17T08:23:56.006Z,101659.06
2022-09-17T08:28:48.828Z,101653.19
2022-09-17T08:33:44.217Z,101656.78
2022-09-17T08:38:38.405Z,101665.63
2022-09-17T08:43:34.115Z,101673.53
2022-09-17T08:48:30.832Z,101657.34
2022-09-17T08:53:48.601Z,101681.88
2022-09-17T08:59:09.762Z,101669.72
2022-09-17T09:04:33.802Z,101677.41
2022-09-17T09:09:31.423Z,101669.66
2022-09-17T09:14:28.093Z,101680.19
2022-09-17T09:23:09.773Z,101667.44
2022-09-17T09:28:14.371Z,101691.03
2022-09-17T09:33:15.928Z,101684.97
2022-09-17T09:38:19.364Z,101680.69
2022-09-17T09:43:19.450Z,101678.13
2022-09-17T09:48:19.629Z,101679.91
2022-09-17T09:53:25.120Z,101686.06
2022-09-17T09:58:25.316Z,101701.66
2022-09-17T10:03:19.555Z,101689.53
2022-09-17T10:08:21.080Z,101691.22
2022-09-17T10:13:15.022Z,101692.91
2022-09-17T10:18:20.451Z,101679.97
2022-09-17T10:23:10.110Z,101665.22
2022-09-17T10:28:05.804Z,101660.03
2022-09-17T10:33:18.437Z,101648.59
2022-09-17T10:38:08.304Z,101660.69
2022-09-17T10:43:22.324Z,101664.25
2022-09-17T10:48:20.414Z,101680.84
2022-09-17T10:53:20.554Z,101692.97
2022-09-17T10:58:28.459Z,101670.34
2022-09-17T11:03:44.419Z,101657.25
2022-09-17T11:08:44.516Z,101654.66
2022-09-17T11:13:45.874Z,101656.47
2022-09-17T11:18:42.443Z,101655.69
2022-09-17T11:23:52.793Z,101652.22
2022-09-17T11:28:56.770Z,101672.19
2022-09-17T11:34:11.837Z,101651.31
2022-09-17T11:39:13.004Z,101642.56
2022-09-17T11:44:11.883Z,101648.56
2022-09-17T11:49:08.787Z,101635.38
2022-09-17T11:54:05.223Z,101643.03
2022-09-17T11:59:02.229Z,101659.47
2022-09-17T12:03:59.373Z,101666.63
2022-09-17T12:08:57.690Z,101651.06
2022-09-17T12:13:51.648Z,101672.84
2022-09-17T12:18:53.644Z,101678.16
2022-09-17T12:23:50.202Z,101670.44
2022-09-17T12:28:51.683Z,101658.28
2022-09-17T12:33:49.692Z,101665.19
2022-09-17T12:39:21.415Z,101656.50
2022-09-17T12:44:27.481Z,101665.13
2022-09-17T12:49:37.973Z,101659.00
2022-09-17T12:54:57.276Z,101658.88
2022-09-17T12:59:53.979Z,101666.59
2022-09-17T13:05:13.040Z,101672.53
2022-09-17T13:10:28.553Z,101653.31
2022-09-17T13:15:40.327Z,101658.41
2022-09-17T13:20:41.273Z,101658.41
2022-09-17T13:25:33.812Z,101644.47
2022-09-17T13:30:23.942Z,101638.31
2022-09-17T13:35:58.670Z,101637.34
2022-09-17T13:40:51.479Z,101644.19
2022-09-17T13:46:16.907Z,101652.75
2022-09-17T13:51:50.505Z,101652.66
2022-09-17T13:56:46.116Z,101647.34
2022-09-17T14:02:04.421Z,101650.69
2022-09-17T14:06:54.994Z,101641.06
2022-09-17T14:11:47.446Z,101646.22
2022-09-17T14:16:50.295Z,101660.13
2022-09-17T14:21:41.146Z,101664.88
2022-09-17T14:27:01.226Z,101663.88
2022-09-17T14:31:52.046Z,101666.81
2022-09-17T14:36:42.297Z,101659.91
2022-09-17T14:41:37.767Z,101652.94
2022-09-17T14:46:33.668Z,101652.94
2022-09-17T14:51:32.503Z,101670.28
2022-09-17T14:56:25.208Z,101666.72
2022-09-17T15:01:25.363Z,101688.41
2022-09-17T15:06:26.024Z,101678.81
2022-09-17T15:11:17.597Z,101669.22
2022-09-17T15:16:12.962Z,101686.53
2022-09-17T15:21:08.759Z,101674.34
2022-09-17T15:26:04.665Z,101675.22
2022-09-17T15:30:54.503Z,101671.81
2022-09-17T15:35:45.084Z,101680.56
2022-09-17T15:40:38.093Z,101672.81
2022-09-17T15:45:37.298Z,101682.47
2022-09-17T15:50:30.309Z,101686.81
2022-09-17T15:55:41.163Z,101685.09
2022-09-17T16:00:34.792Z,101686.00
2022-09-17T16:05:56.324Z,101680.81
2022-09-17T16:10:47.377Z,101688.63
2022-09-17T16:15:40.933Z,101700.81
2022-09-17T16:20:31.441Z,101703.41
2022-09-17T16:25:21.700Z,101712.84
2022-09-17T16:30:16.509Z,101720.50
2022-09-17T16:35:08.825Z,101712.59
2022-09-17T16:39:58.414Z,101715.13
2022-09-17T16:44:48.257Z,101706.38
2022-09-17T16:49:37.850Z,101707.25
2022-09-17T16:54:30.474Z,101711.53
2022-09-17T16:59:19.993Z,101715.84
2022-09-17T17:04:11.283Z,101708.03
2022-09-17T17:09:02.002Z,101712.38
2022-09-17T17:13:55.908Z,101720.16
2022-09-17T17:18:46.010Z,101726.19
2022-09-17T17:23:36.522Z,101714.91
2022-09-17T17:28:27.370Z,101729.41
2022-09-17T17:33:20.750Z,101743.97
2022-09-17T17:38:11.487Z,101744.78
2022-09-17T17:43:00.949Z,101729.09
2022-09-17T17:47:50.935Z,101722.03
2022-09-17T17:52:48.245Z,101727.16
2022-09-17T17:57:39.141Z,101719.31
2022-09-17T18:02:29.381Z,101725.31
2022-09-17T18:07:20.126Z,101717.47
2022-09-17T18:12:15.394Z,101725.31
2022-09-17T18:17:05.711Z,101719.19
2022-09-17T18:21:57.417Z,101723.56
2022-09-17T18:26:48.009Z,101754.69
2022-09-17T18:31:41.457Z,101747.84
2022-09-17T18:36:32.672Z,101744.38
2022-09-17T18:41:22.560Z,101729.63
2022-09-17T18:46:12.303Z,101738.28
2022-09-17T18:51:05.661Z,101734.81
2022-09-17T18:55:55.462Z,101739.16
2022-09-17T19:00:48.322Z,101754.69
2022-09-17T19:05:50.109Z,101764.16
2022-09-17T19:10:42.454Z,101772.75
2022-09-17T19:15:31.926Z,101763.13
2022-09-17T19:20:22.792Z,101757.00
2022-09-17T19:25:12.860Z,101754.34
2022-09-17T19:30:05.690Z,101757.72
2022-09-17T19:34:55.618Z,101755.06
2022-09-17T19:39:46.174Z,101747.09
2022-09-17T19:44:39.398Z,101753.19
2022-09-17T19:49:32.505Z,101754.03
2022-09-17T19:54:22.471Z,101787.78
2022-09-17T19:59:12.655Z,101777.31
2022-09-17T20:04:02.324Z,101790.28
2022-09-17T20:08:56.604Z,101785.06
2022-09-17T20:13:47.346Z,101776.47
2022-09-17T20:18:37.676Z,101773.09
2022-09-17T20:23:27.293Z,101773.94
2022-09-17T20:28:19.573Z,101775.69
2022-09-17T20:33:12.391Z,101770.47
2022-09-17T20:39:06.835Z,101755.63
2022-09-17T20:43:12.627Z,101758.22
2022-09-17T20:48:05.424Z,101759.94
2022-09-17T20:52:55.052Z,101754.69
2022-09-17T20:57:44.754Z,101757.28
2022-09-17T21:02:34.834Z,101751.19
2022-09-17T21:07:27.134Z,101764.19
2022-09-17T21:12:16.838Z,101777.13
2022-09-17T21:17:07.940Z,101774.53
2022-09-17T21:21:57.799Z,101791.81
2022-09-17T21:26:51.383Z,101811.69
2022-09-17T21:31:41.415Z,101784.16
2022-09-17T21:36:32.324Z,101784.22
2022-09-17T21:41:22.207Z,101790.28
2022-09-17T21:46:15.774Z,101798.06
2022-09-17T21:51:05.798Z,101779.91
2022-09-17T21:55:55.198Z,101787.69
2022-09-17T22:00:45.687Z,101774.72
2022-09-17T22:05:37.992Z,101775.53
2022-09-17T22:10:27.371Z,101778.91
2022-09-17T22:15:16.721Z,101784.13
2022-09-17T22:20:06.757Z,101790.16
2022-09-17T22:24:59.054Z,101775.47
2022-09-17T22:29:48.416Z,101779.72
2022-09-17T22:34:37.777Z,101764.16
2022-09-17T22:39:27.218Z,101769.31
2022-09-17T22:44:20.329Z,101759.84
2022-09-17T22:49:10.613Z,101765.03
2022-09-17T22:54:01.146Z,101763.31
2022-09-17T22:58:50.569Z,101757.31
2022-09-17T23:03:43.285Z,101756.50
2022-09-17T23:08:33.855Z,101753.00
2022-09-17T23:13:23.818Z,101758.19
2022-09-17T23:18:13.175Z,101760.00
2022-09-17T23:23:05.123Z,101764.25
2022-09-17T23:27:54.785Z,101767.69
2022-09-17T23:32:44.135Z,101754.69
2022-09-17T23:37:34.345Z,101756.50
2022-09-17T23:42:26.313Z,101756.47
2022-09-17T23:47:15.691Z,101747.91
2022-09-17T23:52:05.098Z,101739.22
2022-09-17T23:56:54.622Z,101740.84
